sensor_id;sensor_type;location;lat;lon;timestamp;P1;durP1;ratioP1;P2;durP2;ratioP2
16979;SDS011;42288;52.182;21.156;2023-12-28T00:02:16;61.57;;;26.53;;
16979;SDS011;42288;52.182;21.156;2023-12-28T00:04:42;64.90;;;26.67;;
16979;SDS011;42288;52.182;21.156;2023-12-28T00:07:07;84.93;;;29.20;;
16979;SDS011;42288;52.182;21.156;2023-12-28T00:09:33;74.83;;;31.07;;
16979;SDS011;42288;52.182;21.156;2023-12-28T00:11:59;73.40;;;29.93;;
16979;SDS011;42288;52.182;21.156;2023-12-28T00:14:24;63.40;;;27.20;;
16979;SDS011;42288;52.182;21.156;2023-12-28T00:16:50;62.30;;;26.47;;
16979;SDS011;42288;52.182;21.156;2023-12-28T00:19:15;62.43;;;27.77;;
16979;SDS011;42288;52.182;21.156;2023-12-28T00:21:41;67.83;;;27.30;;
16979;SDS011;42288;52.182;21.156;2023-12-28T00:24:06;73.73;;;29.23;;
16979;SDS011;42288;52.182;21.156;2023-12-28T00:26:32;61.23;;;26.53;;
16979;SDS011;42288;52.182;21.156;2023-12-28T00:28:57;57.33;;;25.73;;
16979;SDS011;42288;52.182;21.156;2023-12-28T00:31:23;67.50;;;27.20;;
16979;SDS011;42288;52.182;21.156;2023-12-28T00:33:48;57.07;;;25.10;;
16979;SDS011;42288;52.182;21.156;2023-12-28T00:36:15;69.53;;;28.40;;
16979;SDS011;42288;52.182;21.156;2023-12-28T00:38:41;58.97;;;25.80;;
16979;SDS011;42288;52.182;21.156;2023-12-28T00:41:07;58.77;;;25.03;;
16979;SDS011;42288;52.182;21.156;2023-12-28T00:43:32;61.00;;;23.60;;
16979;SDS011;42288;52.182;21.156;2023-12-28T00:45:58;61.03;;;24.90;;
16979;SDS011;42288;52.182;21.156;2023-12-28T00:48:24;57.80;;;24.13;;
16979;SDS011;42288;52.182;21.156;2023-12-28T00:50:49;47.70;;;20.07;;
16979;SDS011;42288;52.182;21.156;2023-12-28T00:53:15;54.20;;;20.10;;
16979;SDS011;42288;52.182;21.156;2023-12-28T00:55:40;58.30;;;21.20;;
16979;SDS011;42288;52.182;21.156;2023-12-28T00:58:06;50.37;;;20.30;;
16979;SDS011;42288;52.182;21.156;2023-12-28T01:00:32;47.50;;;20.03;;
16979;SDS011;42288;52.182;21.156;2023-12-28T01:02:57;55.20;;;21.33;;
16979;SDS011;42288;52.182;21.156;2023-12-28T01:05:23;49.27;;;19.17;;
16979;SDS011;42288;52.182;21.156;2023-12-28T01:07:51;51.77;;;21.03;;
16979;SDS011;42288;52.182;21.156;2023-12-28T01:10:16;41.80;;;19.13;;
16979;SDS011;42288;52.182;21.156;2023-12-28T01:12:42;42.77;;;18.33;;
16979;SDS011;42288;52.182;21.156;2023-12-28T01:15:08;43.07;;;18.47;;
16979;SDS011;42288;52.182;21.156;2023-12-28T01:17:34;46.73;;;16.70;;
16979;SDS011;42288;52.182;21.156;2023-12-28T01:19:59;44.47;;;17.93;;
16979;SDS011;42288;52.182;21.156;2023-12-28T01:22:25;48.07;;;18.30;;
16979;SDS011;42288;52.182;21.156;2023-12-28T01:24:51;46.43;;;17.73;;
16979;SDS011;42288;52.182;21.156;2023-12-28T01:27:16;51.30;;;18.53;;
16979;SDS011;42288;52.182;21.156;2023-12-28T01:29:43;43.07;;;18.13;;
16979;SDS011;42288;52.182;21.156;2023-12-28T01:32:08;38.67;;;17.30;;
16979;SDS011;42288;52.182;21.156;2023-12-28T01:34:34;40.47;;;14.53;;
16979;SDS011;42288;52.182;21.156;2023-12-28T01:36:59;44.13;;;16.47;;
16979;SDS011;42288;52.182;21.156;2023-12-28T01:39:25;33.67;;;15.53;;
16979;SDS011;42288;52.182;21.156;2023-12-28T01:41:51;46.77;;;17.60;;
16979;SDS011;42288;52.182;21.156;2023-12-28T01:44:16;32.33;;;14.07;;
16979;SDS011;42288;52.182;21.156;2023-12-28T01:46:42;29.63;;;13.93;;
16979;SDS011;42288;52.182;21.156;2023-12-28T01:49:07;33.07;;;15.80;;
16979;SDS011;42288;52.182;21.156;2023-12-28T01:51:33;31.87;;;13.93;;
16979;SDS011;42288;52.182;21.156;2023-12-28T01:54:00;44.17;;;15.67;;
16979;SDS011;42288;52.182;21.156;2023-12-28T01:56:26;32.53;;;13.40;;
16979;SDS011;42288;52.182;21.156;2023-12-28T01:58:52;30.23;;;13.00;;
16979;SDS011;42288;52.182;21.156;2023-12-28T02:01:18;36.27;;;14.70;;
16979;SDS011;42288;52.182;21.156;2023-12-28T02:03:45;37.43;;;14.80;;
16979;SDS011;42288;52.182;21.156;2023-12-28T02:06:11;33.27;;;13.83;;
16979;SDS011;42288;52.182;21.156;2023-12-28T02:08:41;34.87;;;14.23;;
16979;SDS011;42288;52.182;21.156;2023-12-28T02:11:08;43.87;;;14.33;;
16979;SDS011;42288;52.182;21.156;2023-12-28T02:13:34;33.03;;;14.43;;
16979;SDS011;42288;52.182;21.156;2023-12-28T02:16:02;33.40;;;13.77;;
16979;SDS011;42288;52.182;21.156;2023-12-28T02:18:38;37.57;;;14.73;;
16979;SDS011;42288;52.182;21.156;2023-12-28T02:21:08;34.23;;;14.60;;
16979;SDS011;42288;52.182;21.156;2023-12-28T02:23:34;33.73;;;13.77;;
16979;SDS011;42288;52.182;21.156;2023-12-28T02:26:01;35.53;;;14.00;;
16979;SDS011;42288;52.182;21.156;2023-12-28T02:28:26;37.67;;;12.90;;
16979;SDS011;42288;52.182;21.156;2023-12-28T02:30:52;32.23;;;13.13;;
16979;SDS011;42288;52.182;21.156;2023-12-28T02:36:09;35.17;;;13.03;;
16979;SDS011;42288;52.182;21.156;2023-12-28T02:38:36;32.80;;;12.73;;
16979;SDS011;42288;52.182;21.156;2023-12-28T02:41:04;44.80;;;14.93;;
16979;SDS011;42288;52.182;21.156;2023-12-28T02:43:30;34.10;;;14.13;;
16979;SDS011;42288;52.182;21.156;2023-12-28T02:45:57;30.53;;;11.87;;
16979;SDS011;42288;52.182;21.156;2023-12-28T02:48:22;33.77;;;12.67;;
16979;SDS011;42288;52.182;21.156;2023-12-28T02:50:48;35.00;;;12.27;;
16979;SDS011;42288;52.182;21.156;2023-12-28T02:53:13;26.10;;;10.57;;
16979;SDS011;42288;52.182;21.156;2023-12-28T02:55:40;32.23;;;12.10;;
16979;SDS011;42288;52.182;21.156;2023-12-28T02:58:06;31.80;;;11.97;;
16979;SDS011;42288;52.182;21.156;2023-12-28T03:00:31;33.40;;;11.97;;
16979;SDS011;42288;52.182;21.156;2023-12-28T03:02:57;27.13;;;12.10;;
16979;SDS011;42288;52.182;21.156;2023-12-28T03:05:23;33.07;;;12.80;;
16979;SDS011;42288;52.182;21.156;2023-12-28T03:07:48;30.50;;;10.80;;
16979;SDS011;42288;52.182;21.156;2023-12-28T03:10:14;31.20;;;11.33;;
16979;SDS011;42288;52.182;21.156;2023-12-28T03:12:40;33.97;;;12.53;;
16979;SDS011;42288;52.182;21.156;2023-12-28T03:15:06;30.40;;;11.20;;
16979;SDS011;42288;52.182;21.156;2023-12-28T03:17:32;31.23;;;11.37;;
16979;SDS011;42288;52.182;21.156;2023-12-28T03:19:58;32.57;;;12.07;;
16979;SDS011;42288;52.182;21.156;2023-12-28T03:22:24;29.53;;;11.20;;
16979;SDS011;42288;52.182;21.156;2023-12-28T03:24:50;27.83;;;10.77;;
16979;SDS011;42288;52.182;21.156;2023-12-28T03:27:16;26.03;;;10.33;;
16979;SDS011;42288;52.182;21.156;2023-12-28T03:29:42;24.70;;;10.37;;
16979;SDS011;42288;52.182;21.156;2023-12-28T03:32:08;33.90;;;12.13;;
16979;SDS011;42288;52.182;21.156;2023-12-28T03:34:34;28.57;;;11.03;;
16979;SDS011;42288;52.182;21.156;2023-12-28T03:36:59;35.30;;;13.57;;
16979;SDS011;42288;52.182;21.156;2023-12-28T03:39:25;32.17;;;11.73;;
16979;SDS011;42288;52.182;21.156;2023-12-28T03:41:51;36.93;;;12.33;;
16979;SDS011;42288;52.182;21.156;2023-12-28T03:44:20;38.40;;;12.53;;
16979;SDS011;42288;52.182;21.156;2023-12-28T03:46:47;36.10;;;12.87;;
16979;SDS011;42288;52.182;21.156;2023-12-28T03:49:17;29.37;;;12.37;;
16979;SDS011;42288;52.182;21.156;2023-12-28T03:51:43;35.03;;;11.33;;
16979;SDS011;42288;52.182;21.156;2023-12-28T03:54:09;31.63;;;11.80;;
16979;SDS011;42288;52.182;21.156;2023-12-28T03:56:36;29.43;;;10.17;;
16979;SDS011;42288;52.182;21.156;2023-12-28T03:59:04;27.87;;;9.60;;
16979;SDS011;42288;52.182;21.156;2023-12-28T04:01:30;27.63;;;10.30;;
16979;SDS011;42288;52.182;21.156;2023-12-28T04:03:56;26.77;;;10.00;;
16979;SDS011;42288;52.182;21.156;2023-12-28T04:06:21;22.67;;;9.33;;
16979;SDS011;42288;52.182;21.156;2023-12-28T04:08:47;30.20;;;10.43;;
16979;SDS011;42288;52.182;21.156;2023-12-28T04:11:12;28.83;;;10.00;;
16979;SDS011;42288;52.182;21.156;2023-12-28T04:13:38;30.97;;;10.27;;
16979;SDS011;42288;52.182;21.156;2023-12-28T04:16:04;26.73;;;9.87;;
16979;SDS011;42288;52.182;21.156;2023-12-28T04:18:30;21.97;;;9.80;;
16979;SDS011;42288;52.182;21.156;2023-12-28T04:20:55;29.60;;;10.37;;
16979;SDS011;42288;52.182;21.156;2023-12-28T04:23:21;31.27;;;9.60;;
16979;SDS011;42288;52.182;21.156;2023-12-28T04:25:46;25.27;;;9.57;;
16979;SDS011;42288;52.182;21.156;2023-12-28T04:28:12;26.27;;;10.10;;
16979;SDS011;42288;52.182;21.156;2023-12-28T04:30:38;31.27;;;10.80;;
16979;SDS011;42288;52.182;21.156;2023-12-28T04:33:05;21.63;;;9.37;;
16979;SDS011;42288;52.182;21.156;2023-12-28T04:35:30;34.60;;;10.73;;
16979;SDS011;42288;52.182;21.156;2023-12-28T04:37:56;25.43;;;10.60;;
16979;SDS011;42288;52.182;21.156;2023-12-28T04:40:21;30.43;;;11.03;;
16979;SDS011;42288;52.182;21.156;2023-12-28T04:42:47;29.30;;;9.43;;
16979;SDS011;42288;52.182;21.156;2023-12-28T04:45:13;27.87;;;9.97;;
16979;SDS011;42288;52.182;21.156;2023-12-28T04:47:38;24.70;;;11.33;;
16979;SDS011;42288;52.182;21.156;2023-12-28T04:50:04;24.53;;;10.10;;
16979;SDS011;42288;52.182;21.156;2023-12-28T04:52:31;26.43;;;9.47;;
16979;SDS011;42288;52.182;21.156;2023-12-28T04:54:57;27.93;;;11.20;;
16979;SDS011;42288;52.182;21.156;2023-12-28T04:57:22;26.53;;;10.17;;
16979;SDS011;42288;52.182;21.156;2023-12-28T04:59:50;30.40;;;11.77;;
16979;SDS011;42288;52.182;21.156;2023-12-28T05:02:16;24.93;;;10.30;;
16979;SDS011;42288;52.182;21.156;2023-12-28T05:04:42;24.23;;;10.80;;
16979;SDS011;42288;52.182;21.156;2023-12-28T05:07:08;35.17;;;11.90;;
16979;SDS011;42288;52.182;21.156;2023-12-28T05:09:33;26.90;;;11.17;;
16979;SDS011;42288;52.182;21.156;2023-12-28T05:11:59;36.83;;;13.33;;
16979;SDS011;42288;52.182;21.156;2023-12-28T05:14:24;38.90;;;14.30;;
16979;SDS011;42288;52.182;21.156;2023-12-28T05:16:50;36.43;;;14.10;;
16979;SDS011;42288;52.182;21.156;2023-12-28T05:19:16;31.07;;;12.27;;
16979;SDS011;42288;52.182;21.156;2023-12-28T05:21:41;31.17;;;12.10;;
16979;SDS011;42288;52.182;21.156;2023-12-28T05:24:07;28.23;;;11.53;;
16979;SDS011;42288;52.182;21.156;2023-12-28T05:26:33;27.40;;;11.70;;
16979;SDS011;42288;52.182;21.156;2023-12-28T05:28:59;37.33;;;12.23;;
16979;SDS011;42288;52.182;21.156;2023-12-28T05:31:24;27.23;;;11.73;;
16979;SDS011;42288;52.182;21.156;2023-12-28T05:33:50;30.67;;;12.40;;
16979;SDS011;42288;52.182;21.156;2023-12-28T05:36:16;31.03;;;12.20;;
16979;SDS011;42288;52.182;21.156;2023-12-28T05:38:41;28.27;;;12.20;;
16979;SDS011;42288;52.182;21.156;2023-12-28T05:41:09;35.50;;;13.00;;
16979;SDS011;42288;52.182;21.156;2023-12-28T05:43:35;37.70;;;13.67;;
16979;SDS011;42288;52.182;21.156;2023-12-28T05:46:01;32.13;;;12.20;;
16979;SDS011;42288;52.182;21.156;2023-12-28T05:48:26;40.57;;;13.40;;
16979;SDS011;42288;52.182;21.156;2023-12-28T05:50:52;30.57;;;12.20;;
16979;SDS011;42288;52.182;21.156;2023-12-28T05:53:17;34.90;;;13.40;;
16979;SDS011;42288;52.182;21.156;2023-12-28T05:55:43;31.83;;;12.13;;
16979;SDS011;42288;52.182;21.156;2023-12-28T05:58:11;30.33;;;12.33;;
16979;SDS011;42288;52.182;21.156;2023-12-28T06:00:37;29.43;;;12.17;;
16979;SDS011;42288;52.182;21.156;2023-12-28T06:03:04;35.77;;;14.30;;
16979;SDS011;42288;52.182;21.156;2023-12-28T06:05:29;29.73;;;13.17;;
16979;SDS011;42288;52.182;21.156;2023-12-28T06:07:55;33.23;;;13.17;;
16979;SDS011;42288;52.182;21.156;2023-12-28T06:10:21;29.10;;;12.87;;
16979;SDS011;42288;52.182;21.156;2023-12-28T06:12:46;40.83;;;13.40;;
16979;SDS011;42288;52.182;21.156;2023-12-28T06:15:12;32.73;;;12.93;;
16979;SDS011;42288;52.182;21.156;2023-12-28T06:17:38;30.40;;;13.37;;
16979;SDS011;42288;52.182;21.156;2023-12-28T06:20:03;36.23;;;15.67;;
16979;SDS011;42288;52.182;21.156;2023-12-28T06:22:29;33.87;;;13.77;;
16979;SDS011;42288;52.182;21.156;2023-12-28T06:24:58;29.83;;;13.43;;
16979;SDS011;42288;52.182;21.156;2023-12-28T06:27:23;33.13;;;14.47;;
16979;SDS011;42288;52.182;21.156;2023-12-28T06:29:49;36.00;;;14.90;;
16979;SDS011;42288;52.182;21.156;2023-12-28T06:32:15;38.17;;;14.17;;
16979;SDS011;42288;52.182;21.156;2023-12-28T06:34:40;55.57;;;21.60;;
16979;SDS011;42288;52.182;21.156;2023-12-28T06:37:06;79.60;;;28.90;;
16979;SDS011;42288;52.182;21.156;2023-12-28T06:39:31;37.40;;;15.57;;
16979;SDS011;42288;52.182;21.156;2023-12-28T06:41:57;39.57;;;14.80;;
16979;SDS011;42288;52.182;21.156;2023-12-28T06:44:22;44.87;;;17.13;;
16979;SDS011;42288;52.182;21.156;2023-12-28T06:46:48;38.43;;;14.47;;
16979;SDS011;42288;52.182;21.156;2023-12-28T06:49:14;44.63;;;20.27;;
16979;SDS011;42288;52.182;21.156;2023-12-28T06:51:39;39.77;;;15.53;;
16979;SDS011;42288;52.182;21.156;2023-12-28T06:54:05;31.73;;;12.90;;
16979;SDS011;42288;52.182;21.156;2023-12-28T06:56:30;61.30;;;26.70;;
16979;SDS011;42288;52.182;21.156;2023-12-28T06:58:56;38.03;;;15.80;;
16979;SDS011;42288;52.182;21.156;2023-12-28T07:01:22;38.10;;;15.30;;
16979;SDS011;42288;52.182;21.156;2023-12-28T07:03:47;52.77;;;21.50;;
16979;SDS011;42288;52.182;21.156;2023-12-28T07:06:13;48.83;;;18.97;;
16979;SDS011;42288;52.182;21.156;2023-12-28T07:08:39;49.57;;;17.13;;
16979;SDS011;42288;52.182;21.156;2023-12-28T07:11:04;53.83;;;17.87;;
16979;SDS011;42288;52.182;21.156;2023-12-28T07:13:30;37.97;;;13.57;;
16979;SDS011;42288;52.182;21.156;2023-12-28T07:15:56;33.33;;;13.50;;
16979;SDS011;42288;52.182;21.156;2023-12-28T07:18:21;30.10;;;13.00;;
16979;SDS011;42288;52.182;21.156;2023-12-28T07:20:47;32.17;;;12.50;;
16979;SDS011;42288;52.182;21.156;2023-12-28T07:23:13;34.37;;;14.83;;
16979;SDS011;42288;52.182;21.156;2023-12-28T07:25:39;37.40;;;13.60;;
16979;SDS011;42288;52.182;21.156;2023-12-28T07:28:04;30.20;;;12.63;;
16979;SDS011;42288;52.182;21.156;2023-12-28T07:30:30;29.90;;;12.83;;
16979;SDS011;42288;52.182;21.156;2023-12-28T07:32:56;38.53;;;15.13;;
16979;SDS011;42288;52.182;21.156;2023-12-28T07:35:22;31.70;;;14.20;;
16979;SDS011;42288;52.182;21.156;2023-12-28T07:37:47;32.70;;;13.90;;
16979;SDS011;42288;52.182;21.156;2023-12-28T07:40:13;35.90;;;13.27;;
16979;SDS011;42288;52.182;21.156;2023-12-28T07:42:39;37.57;;;12.00;;
16979;SDS011;42288;52.182;21.156;2023-12-28T07:45:05;34.33;;;12.47;;
16979;SDS011;42288;52.182;21.156;2023-12-28T07:47:30;29.63;;;12.67;;
16979;SDS011;42288;52.182;21.156;2023-12-28T07:49:56;26.77;;;11.97;;
16979;SDS011;42288;52.182;21.156;2023-12-28T07:52:21;28.27;;;12.63;;
16979;SDS011;42288;52.182;21.156;2023-12-28T07:54:47;32.90;;;13.57;;
16979;SDS011;42288;52.182;21.156;2023-12-28T07:57:13;30.13;;;12.27;;
16979;SDS011;42288;52.182;21.156;2023-12-28T07:59:38;30.03;;;12.70;;
16979;SDS011;42288;52.182;21.156;2023-12-28T08:02:04;34.80;;;14.10;;
16979;SDS011;42288;52.182;21.156;2023-12-28T08:04:30;28.80;;;12.03;;
16979;SDS011;42288;52.182;21.156;2023-12-28T08:06:57;29.67;;;13.13;;
16979;SDS011;42288;52.182;21.156;2023-12-28T08:09:23;26.67;;;11.77;;
16979;SDS011;42288;52.182;21.156;2023-12-28T08:11:48;24.47;;;10.53;;
16979;SDS011;42288;52.182;21.156;2023-12-28T08:14:14;26.20;;;11.60;;
16979;SDS011;42288;52.182;21.156;2023-12-28T08:16:39;26.03;;;12.07;;
16979;SDS011;42288;52.182;21.156;2023-12-28T08:19:05;24.93;;;11.67;;
16979;SDS011;42288;52.182;21.156;2023-12-28T08:21:31;27.67;;;12.47;;
16979;SDS011;42288;52.182;21.156;2023-12-28T08:23:57;24.03;;;11.50;;
16979;SDS011;42288;52.182;21.156;2023-12-28T08:26:22;27.40;;;10.63;;
16979;SDS011;42288;52.182;21.156;2023-12-28T08:28:48;25.53;;;11.80;;
16979;SDS011;42288;52.182;21.156;2023-12-28T08:31:13;26.60;;;12.07;;
16979;SDS011;42288;52.182;21.156;2023-12-28T08:33:40;32.30;;;11.73;;
16979;SDS011;42288;52.182;21.156;2023-12-28T08:36:08;31.50;;;12.70;;
16979;SDS011;42288;52.182;21.156;2023-12-28T08:38:36;29.17;;;12.50;;
16979;SDS011;42288;52.182;21.156;2023-12-28T08:41:02;28.10;;;12.07;;
16979;SDS011;42288;52.182;21.156;2023-12-28T08:43:28;27.63;;;13.03;;
16979;SDS011;42288;52.182;21.156;2023-12-28T08:45:54;31.93;;;12.30;;
16979;SDS011;42288;52.182;21.156;2023-12-28T08:48:20;29.70;;;13.43;;
16979;SDS011;42288;52.182;21.156;2023-12-28T08:50:46;34.37;;;13.00;;
16979;SDS011;42288;52.182;21.156;2023-12-28T08:53:14;29.83;;;12.53;;
16979;SDS011;42288;52.182;21.156;2023-12-28T08:55:40;31.37;;;11.87;;
16979;SDS011;42288;52.182;21.156;2023-12-28T08:58:05;27.60;;;12.00;;
16979;SDS011;42288;52.182;21.156;2023-12-28T09:00:31;25.00;;;11.20;;
16979;SDS011;42288;52.182;21.156;2023-12-28T09:02:58;26.93;;;12.73;;
16979;SDS011;42288;52.182;21.156;2023-12-28T09:05:23;29.80;;;11.00;;
16979;SDS011;42288;52.182;21.156;2023-12-28T09:07:49;29.27;;;12.83;;
16979;SDS011;42288;52.182;21.156;2023-12-28T09:10:14;31.07;;;12.27;;
16979;SDS011;42288;52.182;21.156;2023-12-28T09:12:40;28.30;;;11.70;;
16979;SDS011;42288;52.182;21.156;2023-12-28T09:15:07;23.87;;;11.77;;
16979;SDS011;42288;52.182;21.156;2023-12-28T09:17:33;26.20;;;11.97;;
16979;SDS011;42288;52.182;21.156;2023-12-28T09:19:59;26.93;;;11.50;;
16979;SDS011;42288;52.182;21.156;2023-12-28T09:22:26;24.57;;;11.77;;
16979;SDS011;42288;52.182;21.156;2023-12-28T09:24:52;26.63;;;12.07;;
16979;SDS011;42288;52.182;21.156;2023-12-28T09:27:17;24.27;;;11.70;;
16979;SDS011;42288;52.182;21.156;2023-12-28T09:29:43;26.17;;;12.20;;
16979;SDS011;42288;52.182;21.156;2023-12-28T09:32:09;22.00;;;11.60;;
16979;SDS011;42288;52.182;21.156;2023-12-28T09:34:34;22.43;;;11.47;;
16979;SDS011;42288;52.182;21.156;2023-12-28T09:37:01;24.60;;;11.47;;
16979;SDS011;42288;52.182;21.156;2023-12-28T09:39:26;23.60;;;10.87;;
16979;SDS011;42288;52.182;21.156;2023-12-28T09:41:57;28.33;;;11.33;;
16979;SDS011;42288;52.182;21.156;2023-12-28T09:44:27;25.93;;;10.97;;
16979;SDS011;42288;52.182;21.156;2023-12-28T09:46:55;29.47;;;11.33;;
16979;SDS011;42288;52.182;21.156;2023-12-28T09:49:23;22.70;;;10.73;;
16979;SDS011;42288;52.182;21.156;2023-12-28T09:51:49;22.50;;;11.20;;
16979;SDS011;42288;52.182;21.156;2023-12-28T09:54:14;25.23;;;10.90;;
16979;SDS011;42288;52.182;21.156;2023-12-28T09:56:40;26.40;;;11.20;;
16979;SDS011;42288;52.182;21.156;2023-12-28T09:59:06;23.13;;;10.83;;
16979;SDS011;42288;52.182;21.156;2023-12-28T10:01:32;28.90;;;12.00;;
16979;SDS011;42288;52.182;21.156;2023-12-28T10:04:00;26.53;;;10.87;;
16979;SDS011;42288;52.182;21.156;2023-12-28T10:06:28;27.53;;;11.90;;
16979;SDS011;42288;52.182;21.156;2023-12-28T10:08:53;22.87;;;11.37;;
16979;SDS011;42288;52.182;21.156;2023-12-28T10:11:20;24.63;;;10.63;;
16979;SDS011;42288;52.182;21.156;2023-12-28T10:13:48;23.90;;;11.60;;
16979;SDS011;42288;52.182;21.156;2023-12-28T10:16:14;23.50;;;10.70;;
16979;SDS011;42288;52.182;21.156;2023-12-28T10:18:41;27.27;;;10.83;;
16979;SDS011;42288;52.182;21.156;2023-12-28T10:21:07;25.77;;;11.83;;
16979;SDS011;42288;52.182;21.156;2023-12-28T10:23:33;22.97;;;10.20;;
16979;SDS011;42288;52.182;21.156;2023-12-28T10:25:59;18.23;;;8.17;;
16979;SDS011;42288;52.182;21.156;2023-12-28T10:28:25;16.63;;;7.93;;
16979;SDS011;42288;52.182;21.156;2023-12-28T10:30:55;18.87;;;7.93;;
16979;SDS011;42288;52.182;21.156;2023-12-28T10:33:23;16.90;;;7.87;;
16979;SDS011;42288;52.182;21.156;2023-12-28T10:35:52;13.63;;;6.33;;
16979;SDS011;42288;52.182;21.156;2023-12-28T10:38:21;10.63;;;5.70;;
16979;SDS011;42288;52.182;21.156;2023-12-28T10:40:49;12.57;;;6.33;;
16979;SDS011;42288;52.182;21.156;2023-12-28T10:43:16;11.10;;;5.30;;
16979;SDS011;42288;52.182;21.156;2023-12-28T10:45:42;12.20;;;5.60;;
16979;SDS011;42288;52.182;21.156;2023-12-28T10:48:12;12.17;;;6.10;;
16979;SDS011;42288;52.182;21.156;2023-12-28T10:58:32;11.03;;;5.70;;
16979;SDS011;42288;52.182;21.156;2023-12-28T11:01:08;11.00;;;5.90;;
16979;SDS011;42288;52.182;21.156;2023-12-28T11:03:37;11.70;;;5.67;;
16979;SDS011;42288;52.182;21.156;2023-12-28T11:06:05;9.70;;;4.83;;
16979;SDS011;42288;52.182;21.156;2023-12-28T11:08:33;12.20;;;4.97;;
16979;SDS011;42288;52.182;21.156;2023-12-28T11:11:00;13.20;;;5.70;;
16979;SDS011;42288;52.182;21.156;2023-12-28T11:13:29;12.03;;;5.73;;
16979;SDS011;42288;52.182;21.156;2023-12-28T11:15:57;14.47;;;6.20;;
16979;SDS011;42288;52.182;21.156;2023-12-28T11:18:23;16.07;;;6.30;;
16979;SDS011;42288;52.182;21.156;2023-12-28T11:20:51;13.57;;;6.13;;
16979;SDS011;42288;52.182;21.156;2023-12-28T11:23:17;14.07;;;6.17;;
16979;SDS011;42288;52.182;21.156;2023-12-28T11:25:43;12.90;;;6.37;;
16979;SDS011;42288;52.182;21.156;2023-12-28T11:28:12;18.57;;;6.03;;
16979;SDS011;42288;52.182;21.156;2023-12-28T11:30:41;13.43;;;5.90;;
16979;SDS011;42288;52.182;21.156;2023-12-28T11:33:07;11.70;;;5.67;;
16979;SDS011;42288;52.182;21.156;2023-12-28T11:35:40;11.83;;;5.57;;
16979;SDS011;42288;52.182;21.156;2023-12-28T11:38:07;10.73;;;5.97;;
16979;SDS011;42288;52.182;21.156;2023-12-28T11:40:46;13.00;;;6.23;;
16979;SDS011;42288;52.182;21.156;2023-12-28T11:43:19;11.93;;;6.00;;
16979;SDS011;42288;52.182;21.156;2023-12-28T11:45:49;13.23;;;6.57;;
16979;SDS011;42288;52.182;21.156;2023-12-28T11:48:26;14.37;;;6.27;;
16979;SDS011;42288;52.182;21.156;2023-12-28T11:50:59;11.93;;;6.07;;
16979;SDS011;42288;52.182;21.156;2023-12-28T11:53:25;12.37;;;6.03;;
16979;SDS011;42288;52.182;21.156;2023-12-28T11:55:51;13.33;;;6.20;;
16979;SDS011;42288;52.182;21.156;2023-12-28T11:58:18;12.93;;;6.40;;
16979;SDS011;42288;52.182;21.156;2023-12-28T12:00:43;16.87;;;6.37;;
16979;SDS011;42288;52.182;21.156;2023-12-28T12:03:10;15.93;;;6.13;;
16979;SDS011;42288;52.182;21.156;2023-12-28T12:05:36;14.33;;;6.33;;
16979;SDS011;42288;52.182;21.156;2023-12-28T12:08:02;13.57;;;7.30;;
16979;SDS011;42288;52.182;21.156;2023-12-28T12:10:28;12.40;;;6.80;;
16979;SDS011;42288;52.182;21.156;2023-12-28T12:12:54;15.30;;;7.53;;
16979;SDS011;42288;52.182;21.156;2023-12-28T12:15:20;13.20;;;6.53;;
16979;SDS011;42288;52.182;21.156;2023-12-28T12:17:45;13.00;;;6.97;;
16979;SDS011;42288;52.182;21.156;2023-12-28T12:20:12;13.33;;;6.47;;
16979;SDS011;42288;52.182;21.156;2023-12-28T12:22:39;12.83;;;6.27;;
16979;SDS011;42288;52.182;21.156;2023-12-28T12:25:05;13.10;;;6.60;;
16979;SDS011;42288;52.182;21.156;2023-12-28T12:27:33;10.90;;;5.90;;
16979;SDS011;42288;52.182;21.156;2023-12-28T12:29:59;15.43;;;5.87;;
16979;SDS011;42288;52.182;21.156;2023-12-28T12:32:24;11.97;;;6.10;;
16979;SDS011;42288;52.182;21.156;2023-12-28T12:34:51;12.83;;;5.97;;
16979;SDS011;42288;52.182;21.156;2023-12-28T12:37:17;15.83;;;6.33;;
16979;SDS011;42288;52.182;21.156;2023-12-28T12:39:43;10.47;;;6.23;;
16979;SDS011;42288;52.182;21.156;2023-12-28T12:42:12;12.23;;;5.90;;
16979;SDS011;42288;52.182;21.156;2023-12-28T12:44:38;13.27;;;5.87;;
16979;SDS011;42288;52.182;21.156;2023-12-28T12:47:04;13.47;;;6.87;;
16979;SDS011;42288;52.182;21.156;2023-12-28T12:49:30;11.57;;;5.93;;
16979;SDS011;42288;52.182;21.156;2023-12-28T12:51:56;11.57;;;5.37;;
16979;SDS011;42288;52.182;21.156;2023-12-28T12:54:22;13.40;;;5.70;;
16979;SDS011;42288;52.182;21.156;2023-12-28T12:56:49;14.73;;;6.07;;
16979;SDS011;42288;52.182;21.156;2023-12-28T12:59:15;12.47;;;5.83;;
16979;SDS011;42288;52.182;21.156;2023-12-28T13:01:43;13.57;;;6.43;;
16979;SDS011;42288;52.182;21.156;2023-12-28T13:04:13;13.43;;;6.90;;
16979;SDS011;42288;52.182;21.156;2023-12-28T13:06:41;17.83;;;7.03;;
16979;SDS011;42288;52.182;21.156;2023-12-28T13:09:07;14.00;;;6.73;;
16979;SDS011;42288;52.182;21.156;2023-12-28T13:11:35;11.80;;;5.83;;
16979;SDS011;42288;52.182;21.156;2023-12-28T13:14:01;15.60;;;6.70;;
16979;SDS011;42288;52.182;21.156;2023-12-28T13:16:27;14.00;;;6.53;;
16979;SDS011;42288;52.182;21.156;2023-12-28T13:18:53;14.13;;;6.67;;
16979;SDS011;42288;52.182;21.156;2023-12-28T13:21:18;19.00;;;6.90;;
16979;SDS011;42288;52.182;21.156;2023-12-28T13:23:44;12.57;;;5.70;;
16979;SDS011;42288;52.182;21.156;2023-12-28T13:26:09;14.27;;;6.53;;
16979;SDS011;42288;52.182;21.156;2023-12-28T13:28:35;10.80;;;5.70;;
16979;SDS011;42288;52.182;21.156;2023-12-28T13:31:01;11.77;;;6.00;;
16979;SDS011;42288;52.182;21.156;2023-12-28T13:33:26;14.10;;;6.40;;
16979;SDS011;42288;52.182;21.156;2023-12-28T13:35:52;12.83;;;6.00;;
16979;SDS011;42288;52.182;21.156;2023-12-28T13:38:17;13.80;;;6.50;;
16979;SDS011;42288;52.182;21.156;2023-12-28T13:40:43;13.27;;;6.80;;
16979;SDS011;42288;52.182;21.156;2023-12-28T13:43:10;12.40;;;6.27;;
16979;SDS011;42288;52.182;21.156;2023-12-28T13:45:36;11.63;;;5.50;;
16979;SDS011;42288;52.182;21.156;2023-12-28T13:48:02;12.97;;;6.17;;
16979;SDS011;42288;52.182;21.156;2023-12-28T13:50:27;11.10;;;5.67;;
16979;SDS011;42288;52.182;21.156;2023-12-28T13:52:53;9.60;;;5.17;;
16979;SDS011;42288;52.182;21.156;2023-12-28T13:55:19;11.27;;;5.90;;
16979;SDS011;42288;52.182;21.156;2023-12-28T13:57:45;14.07;;;5.93;;
16979;SDS011;42288;52.182;21.156;2023-12-28T14:00:10;11.93;;;5.67;;
16979;SDS011;42288;52.182;21.156;2023-12-28T14:02:37;15.73;;;6.70;;
16979;SDS011;42288;52.182;21.156;2023-12-28T14:05:02;18.13;;;6.93;;
16979;SDS011;42288;52.182;21.156;2023-12-28T14:07:28;11.27;;;6.30;;
16979;SDS011;42288;52.182;21.156;2023-12-28T14:09:54;12.90;;;6.30;;
16979;SDS011;42288;52.182;21.156;2023-12-28T14:12:19;13.30;;;7.13;;
16979;SDS011;42288;52.182;21.156;2023-12-28T14:14:45;14.53;;;6.97;;
16979;SDS011;42288;52.182;21.156;2023-12-28T14:17:10;13.80;;;5.90;;
16979;SDS011;42288;52.182;21.156;2023-12-28T14:19:36;11.03;;;5.67;;